createdAt,value
2023-05-13T00:00:00.000Z,80.41
2023-05-13T00:15:00.000Z,80.27
2023-05-13T00:30:00.000Z,80.3
2023-05-13T00:45:00.000Z,80.1
2023-05-13T01:00:00.000Z,80.43
2023-05-13T01:15:00.000Z,80.75
2023-05-13T01:30:00.000Z,80.86
2023-05-13T01:45:00.000Z,80.69
2023-05-13T02:00:00.000Z,80.54
2023-05-13T02:15:00.000Z,80.63
2023-05-13T02:30:00.000Z,80.53
2023-05-13T02:45:00.000Z,80.58
2023-05-13T03:00:00.000Z,80.74
2023-05-13T03:15:00.000Z,80.8
2023-05-13T03:30:00.000Z,80.67
2023-05-13T03:45:00.000Z,80.23
2023-05-13T04:00:00.000Z,79.52
2023-05-13T04:15:00.000Z,78.69
2023-05-13T04:30:00.000Z,78.27
2023-05-13T04:45:00.000Z,78.36
2023-05-13T05:00:00.000Z,78.56
2023-05-13T05:15:00.000Z,76.86
2023-05-13T05:30:00.000Z,75.11
2023-05-13T05:45:00.000Z,73.9
2023-05-13T06:00:00.000Z,71.52
2023-05-13T06:15:00.000Z,69.75
2023-05-13T06:30:00.000Z,69.37
2023-05-13T06:45:00.000Z,67.92
2023-05-13T07:00:00.000Z,67.71
2023-05-13T07:15:00.000Z,65.2
2023-05-13T07:30:00.000Z,56.93
2023-05-13T07:45:00.000Z,60.23
2023-05-13T08:00:00.000Z,55.79
2023-05-13T08:15:00.000Z,51.84
2023-05-13T08:30:00.000Z,52.18
2023-05-13T08:45:00.000Z,55.08
2023-05-13T09:00:00.000Z,56
2023-05-13T09:15:00.000Z,56.02
2023-05-13T09:30:00.000Z,55.35
2023-05-13T09:45:00.000Z,54.89
2023-05-13T10:00:00.000Z,54.46
2023-05-13T10:15:00.000Z,50.23
2023-05-13T10:30:00.000Z,51.07
2023-05-13T10:45:00.000Z,49.45
2023-05-13T11:00:00.000Z,51.44
2023-05-13T11:15:00.000Z,52.01
2023-05-13T11:30:00.000Z,49.4
2023-05-13T11:45:00.000Z,51.15
2023-05-13T12:00:00.000Z,52.21
2023-05-13T12:15:00.000Z,54.42
2023-05-13T12:30:00.000Z,53.29
2023-05-13T12:45:00.000Z,54.13
2023-05-13T13:00:00.000Z,52.53
2023-05-13T13:15:00.000Z,52.96
2023-05-13T13:30:00.000Z,51.39
2023-05-13T13:45:00.000Z,50.93
2023-05-13T14:00:00.000Z,53.06
2023-05-13T14:15:00.000Z,54.8
2023-05-13T14:30:00.000Z,54.67
2023-05-13T14:45:00.000Z,54.42
2023-05-13T15:00:00.000Z,56.82
2023-05-13T15:15:00.000Z,62.09
2023-05-13T15:30:00.000Z,61.31
2023-05-13T15:45:00.000Z,61.94
2023-05-13T16:00:00.000Z,64.36
2023-05-13T16:15:00.000Z,66.32
2023-05-13T16:30:00.000Z,68.24
2023-05-13T16:45:00.000Z,70.46
2023-05-13T17:00:00.000Z,71.93
2023-05-13T17:15:00.000Z,72.46
2023-05-13T17:30:00.000Z,72.39
2023-05-13T17:45:00.000Z,72.37
2023-05-13T18:00:00.000Z,73.04
2023-05-13T18:15:00.000Z,74.36
2023-05-13T18:30:00.000Z,77.99
2023-05-13T18:45:00.000Z,78.68
2023-05-13T19:00:00.000Z,80.49
2023-05-13T19:15:00.000Z,81.53
2023-05-13T19:30:00.000Z,81.61
2023-05-13T19:45:00.000Z,82.21
2023-05-13T20:00:00.000Z,81.65
2023-05-13T20:15:00.000Z,83.45
2023-05-13T20:30:00.000Z,83.62
2023-05-13T20:45:00.000Z,83.35
2023-05-13T21:00:00.000Z,82.95
2023-05-13T21:15:00.000Z,81.86
2023-05-13T21:30:00.000Z,81.69
2023-05-13T21:45:00.000Z,82
2023-05-13T22:00:00.000Z,82.67
2023-05-13T22:15:00.000Z,82.19
2023-05-13T22:30:00.000Z,82.09
2023-05-13T22:45:00.000Z,82.04
2023-05-13T23:00:00.000Z,82.32
2023-05-13T23:15:00.000Z,81.97
2023-05-13T23:30:00.000Z,82.17
2023-05-13T23:45:00.000Z,83.22
